»·PEaware :: N501NM KTVL-KTUS

N501NM :: KTVL-KTUS

FLIGHT INFORMATION

Flight Status: Arrived
Operator: Privately registered:
United States
More flights under this callsign
Pilot: Erik A. (17503)
Aircraft: CANADAIR CL-600 CHALLENGER
(CL60)
More flights by this aircraft type
Origin: KTVL Lake Tahoe
United States
Destination: KTUS Tucson Intl
United States
More flights between these airports :: More routes between these airports
Route: SWR V338 HNW V332 FRA V459 SLI V64 BLH V16 TUS
File this flight plan on PilotEdge
Remarks: Challenger test-flight 004
Altitude:
(Current/Filed)
15,500ft
Speed:
(Current/Filed)
420kts
Departed: 25-Nov-23 03:51 PM
Arrived: 25-Nov-23 05:42 PM
Distance/Time
Traveled:
600nm/1:51
Distance/Time
To Go:
Arrived

Flight Plot

Page will automatically refresh every two minutes.

Flight plan parsing failed; only flown route is shown


Map Options




Map Legend


Flown Route
Filed Route
Departure Airport
Arrival Airport
Navaid (VOR, NDB)
Fix

Horizontal Profiles

Position Reports

Time Latitude Longitude Heading Altitude Ground
Speed
25-Nov-23 15:14 38.892320 -119.997822 275 6271ft 0kts
25-Nov-23 15:15 38.892320 -119.997822 275 6271ft 0kts
25-Nov-23 15:16 38.892320 -119.997822 275 6271ft 0kts
25-Nov-23 15:17 38.892320 -119.997822 275 6271ft 0kts
25-Nov-23 15:18 38.892320 -119.997822 275 6271ft 0kts
25-Nov-23 15:19 38.892320 -119.997822 275 6271ft 0kts
25-Nov-23 15:20 38.892320 -119.997822 275 6271ft 0kts
25-Nov-23 15:21 38.892320 -119.997822 275 6271ft 0kts
25-Nov-23 15:22 38.892320 -119.997822 275 6271ft 0kts
25-Nov-23 15:23 38.892320 -119.997822 275 6271ft 0kts
25-Nov-23 15:24 38.892320 -119.997822 275 6271ft 0kts
25-Nov-23 15:25 38.892320 -119.997822 275 6271ft 0kts
25-Nov-23 15:26 38.892320 -119.997822 275 6271ft 0kts
25-Nov-23 15:27 38.892320 -119.997822 275 6271ft 0kts
25-Nov-23 15:28 38.892320 -119.997822 275 6271ft 0kts
25-Nov-23 15:29 38.892320 -119.997822 275 6271ft 0kts
25-Nov-23 15:30 38.892320 -119.997822 275 6271ft 0kts
25-Nov-23 15:31 38.892320 -119.997822 275 6271ft 0kts
25-Nov-23 15:32 38.892320 -119.997822 275 6271ft 0kts
25-Nov-23 15:33 38.892321 -119.997822 275 6271ft 0kts
25-Nov-23 15:34 38.892321 -119.997822 275 6271ft 0kts
25-Nov-23 15:35 38.892321 -119.997822 275 6271ft 0kts
25-Nov-23 15:36 38.892321 -119.997822 275 6271ft 0kts
25-Nov-23 15:37 38.892321 -119.997822 275 6271ft 0kts
25-Nov-23 15:38 38.892321 -119.997822 275 6271ft 0kts
25-Nov-23 15:39 38.892321 -119.997822 275 6271ft 0kts
25-Nov-23 15:40 38.892321 -119.997822 275 6271ft 0kts
25-Nov-23 15:41 38.892321 -119.997822 275 6271ft 0kts
25-Nov-23 15:42 38.892321 -119.997822 275 6271ft 0kts
25-Nov-23 15:43 38.892342 -119.997906 302 6271ft 2kts
25-Nov-23 15:44 38.889766 -119.997607 193 6269ft 14kts
25-Nov-23 15:45 38.884603 -119.999150 193 6273ft 22kts
25-Nov-23 15:46 38.882780 -119.999501 146 6274ft 0kts
25-Nov-23 15:47 38.882780 -119.999501 146 6274ft 0kts
25-Nov-23 15:48 38.882780 -119.999500 146 6274ft 0kts
25-Nov-23 15:49 38.883168 -119.998480 11 6274ft 0kts
25-Nov-23 15:50 38.911035 -119.989586 16 6895ft 184kts
25-Nov-23 15:51 38.965651 -119.975232 12 9859ft 222kts
25-Nov-23 15:52 39.024807 -119.997798 298 11911ft 277kts
25-Nov-23 15:53 39.061643 -120.091756 284 15199ft 319kts
25-Nov-23 15:54 39.122249 -120.191133 319 15660ft 403kts
25-Nov-23 15:55 39.130221 -120.327349 234 15597ft 441kts
25-Nov-23 15:56 39.035875 -120.428748 220 15568ft 439kts
25-Nov-23 15:57 38.940463 -120.527329 220 15633ft 440kts
25-Nov-23 15:58 38.845619 -120.625845 220 15638ft 438kts
25-Nov-23 15:59 38.745045 -120.711872 195 15672ft 441kts
25-Nov-23 16:00 38.629689 -120.680341 148 15657ft 435kts
25-Nov-23 16:01 38.524060 -120.603991 149 15647ft 435kts
25-Nov-23 16:02 38.418070 -120.527461 149 15658ft 438kts
25-Nov-23 16:03 38.312328 -120.451255 149 15666ft 436kts
25-Nov-23 16:04 38.206070 -120.374866 149 15698ft 437kts
25-Nov-23 16:05 38.099998 -120.298817 149 15717ft 440kts
25-Nov-23 16:06 37.992916 -120.222308 149 15720ft 440kts
25-Nov-23 16:07 37.886187 -120.146290 149 15709ft 440kts
25-Nov-23 16:08 37.779173 -120.070311 149 15705ft 442kts
25-Nov-23 16:09 37.671381 -119.994037 150 15681ft 443kts
25-Nov-23 16:10 37.563622 -119.918044 150 15683ft 443kts
25-Nov-23 16:11 37.455564 -119.842090 150 15672ft 443kts
25-Nov-23 16:12 37.347818 -119.766602 150 15672ft 444kts
25-Nov-23 16:13 37.239300 -119.690824 150 15672ft 443kts
25-Nov-23 16:14 37.131097 -119.615512 150 15668ft 445kts
25-Nov-23 16:15 37.017898 -119.553471 158 15673ft 445kts
25-Nov-23 16:16 36.902111 -119.497357 158 15667ft 445kts
25-Nov-23 16:17 36.786063 -119.441103 158 15678ft 446kts
25-Nov-23 16:18 36.669477 -119.384656 158 15685ft 447kts
25-Nov-23 16:19 36.553008 -119.328385 159 15684ft 447kts
25-Nov-23 16:20 36.436747 -119.272403 159 15685ft 448kts
25-Nov-23 16:21 36.320123 -119.216418 159 15694ft 449kts
25-Nov-23 16:22 36.203233 -119.160443 159 15685ft 449kts
25-Nov-23 16:23 36.086156 -119.104552 160 15398ft 449kts
25-Nov-23 16:24 35.969998 -119.049241 160 14899ft 445kts
25-Nov-23 16:25 35.852665 -118.999159 165 14347ft 442kts
25-Nov-23 16:26 35.733784 -118.956123 164 13638ft 436kts
25-Nov-23 16:27 35.617313 -118.913915 164 13628ft 435kts
25-Nov-23 16:28 35.500310 -118.871515 164 13632ft 436kts
25-Nov-23 16:29 35.383874 -118.829204 164 13651ft 437kts
25-Nov-23 16:30 35.266964 -118.786812 164 13652ft 435kts
25-Nov-23 16:31 35.150576 -118.744890 165 13861ft 434kts
25-Nov-23 16:32 35.033086 -118.703209 165 14233ft 444kts
25-Nov-23 16:33 34.914468 -118.660787 165 13649ft 436kts
25-Nov-23 16:34 34.797576 -118.619031 164 13640ft 436kts
25-Nov-23 16:35 34.680603 -118.576705 159 13661ft 437kts
25-Nov-23 16:36 34.570573 -118.512695 154 13655ft 437kts
25-Nov-23 16:37 34.460668 -118.448300 155 13657ft 438kts
25-Nov-23 16:38 34.350346 -118.383899 155 13660ft 438kts
25-Nov-23 16:39 34.243289 -118.321613 155 13665ft 439kts
25-Nov-23 16:40 34.131173 -118.256604 155 13660ft 437kts
25-Nov-23 16:41 34.020231 -118.192459 155 13673ft 439kts
25-Nov-23 16:42 33.910022 -118.128924 156 13672ft 438kts
25-Nov-23 16:43 33.805542 -118.054389 131 13691ft 440kts
25-Nov-23 16:44 33.772719 -117.916709 93 13663ft 434kts
25-Nov-23 16:45 33.761959 -117.778541 93 13669ft 434kts
25-Nov-23 16:46 33.750297 -117.628299 92 13674ft 434kts
25-Nov-23 16:47 33.739206 -117.483900 93 13671ft 435kts
25-Nov-23 16:48 33.727528 -117.339234 93 13663ft 433kts
25-Nov-23 16:49 33.715782 -117.194543 93 13669ft 435kts
25-Nov-23 16:50 33.704005 -117.050792 93 15300ft 436kts
25-Nov-23 16:51 33.691465 -116.899945 93 15704ft 454kts
25-Nov-23 16:52 33.678694 -116.748641 93 15706ft 454kts
25-Nov-23 16:53 33.665827 -116.598500 94 15240ft 456kts
25-Nov-23 16:54 33.653415 -116.455701 94 13662ft 432kts
25-Nov-23 16:55 33.640778 -116.311637 94 13685ft 433kts
25-Nov-23 16:56 33.628017 -116.166980 92 13678ft 432kts
25-Nov-23 16:57 33.624933 -116.022832 89 13678ft 432kts
25-Nov-23 16:58 33.622174 -115.878660 89 13660ft 432kts
25-Nov-23 16:59 33.619405 -115.739372 89 15307ft 429kts
25-Nov-23 17:00 33.616130 -115.585459 89 15675ft 451kts
25-Nov-23 17:01 33.612720 -115.434913 89 15684ft 451kts
25-Nov-23 17:02 33.609131 -115.284337 89 15660ft 450kts
25-Nov-23 17:03 33.605370 -115.133857 89 15656ft 450kts
25-Nov-23 17:04 33.601425 -114.983411 89 15651ft 450kts
25-Nov-23 17:05 33.597288 -114.832932 89 15652ft 451kts
25-Nov-23 17:06 33.590387 -114.682390 92 15649ft 451kts
25-Nov-23 17:07 33.580096 -114.531477 92 15649ft 451kts
25-Nov-23 17:08 33.569753 -114.380870 92 15647ft 452kts
25-Nov-23 17:09 33.559121 -114.228683 93 15629ft 452kts
25-Nov-23 17:10 33.548462 -114.078047 93 15599ft 450kts
25-Nov-23 17:11 33.537610 -113.927519 93 15561ft 451kts
25-Nov-23 17:12 33.526694 -113.778258 93 15531ft 451kts
25-Nov-23 17:13 33.515464 -113.627866 93 15527ft 451kts
25-Nov-23 17:14 33.504045 -113.477287 93 15554ft 451kts
25-Nov-23 17:15 33.492462 -113.326300 94 15576ft 451kts
25-Nov-23 17:16 33.480649 -113.175934 94 15574ft 451kts
25-Nov-23 17:17 33.468669 -113.025404 93 15584ft 452kts
25-Nov-23 17:18 33.456574 -112.875798 94 15576ft 452kts
25-Nov-23 17:19 33.450403 -112.724783 89 15583ft 451kts
25-Nov-23 17:20 33.447017 -112.574236 89 15588ft 451kts
25-Nov-23 17:21 33.408408 -112.435511 132 15572ft 452kts
25-Nov-23 17:22 33.324702 -112.321201 132 15595ft 451kts
25-Nov-23 17:24 33.241441 -112.207400 132 15596ft 452kts
25-Nov-23 17:25 33.157951 -112.093445 133 15678ft 453kts
25-Nov-23 17:26 33.074054 -111.979209 132 15689ft 455kts
25-Nov-23 17:27 32.990248 -111.865395 132 15692ft 454kts
25-Nov-23 17:28 32.906622 -111.752154 133 15705ft 456kts
25-Nov-23 17:29 32.821674 -111.638439 137 15718ft 456kts
25-Nov-23 17:30 32.725566 -111.541300 142 15725ft 421kts
25-Nov-23 17:31 32.641934 -111.457708 142 14349ft 372kts
25-Nov-23 17:32 32.567286 -111.383175 142 13242ft 330kts
25-Nov-23 17:33 32.498874 -111.314964 142 12064ft 305kts
25-Nov-23 17:34 32.435615 -111.252009 142 10992ft 283kts
25-Nov-23 17:35 32.377280 -111.194062 141 9942ft 263kts
25-Nov-23 17:36 32.321037 -111.141520 144 8789ft 251kts
25-Nov-23 17:37 32.266285 -111.101049 155 8571ft 202kts
25-Nov-23 17:38 32.216558 -111.072130 163 8569ft 197kts
25-Nov-23 17:39 32.178369 -111.032992 122 7260ft 179kts
25-Nov-23 17:40 32.153691 -110.986682 126 5182ft 153kts
25-Nov-23 17:41 32.124510 -110.949128 137 2682ft 147kts
25-Nov-23 17:42 32.111530 -110.932067 42 2629ft 0kts
25-Nov-23 17:43 32.111530 -110.932067 42 2629ft 0kts
25-Nov-23 17:44 32.111530 -110.932067 42 2629ft 0kts
25-Nov-23 17:45 32.111531 -110.932067 42 2629ft 0kts
25-Nov-23 17:46 32.111962 -110.931988 315 2629ft 7kts
25-Nov-23 17:47 32.114671 -110.935163 314 2620ft 12kts
25-Nov-23 17:48 32.118196 -110.939277 315 2608ft 20kts
25-Nov-23 17:49 32.121806 -110.943526 315 2594ft 17kts
25-Nov-23 17:50 32.124863 -110.947335 255 2582ft 12kts
25-Nov-23 17:51 32.123041 -110.949632 220 2580ft 15kts
25-Nov-23 17:51 32.120612 -110.952442 225 2576ft 14kts
25-Nov-23 17:52 32.117464 -110.956005 205 2575ft 5kts
25-Nov-23 17:53 32.115494 -110.955640 181 2580ft 10kts
25-Nov-23 17:55 32.114579 -110.955215 91 2581ft 0kts
25-Nov-23 17:56 32.114579 -110.955215 91 2581ft 0kts
25-Nov-23 17:56 32.114579 -110.955215 91 2581ft 0kts

Navigation Log

Ident Type
Flight plan parsing failed, navigation log unavailable